sensor_id;sensor_type;location;lat;lon;timestamp;temperature;humidity
22319;DHT22;11327;52.334;9.506;2022-07-06T00:02:03;16.80;99.90
22319;DHT22;11327;52.334;9.506;2022-07-06T00:05:24;16.80;99.90
22319;DHT22;11327;52.334;9.506;2022-07-06T00:08:45;16.70;99.90
22319;DHT22;11327;52.334;9.506;2022-07-06T00:12:06;16.70;99.90
22319;DHT22;11327;52.334;9.506;2022-07-06T00:15:27;16.70;99.90
22319;DHT22;11327;52.334;9.506;2022-07-06T00:18:49;16.70;99.90
22319;DHT22;11327;52.334;9.506;2022-07-06T00:22:10;16.70;99.90
22319;DHT22;11327;52.334;9.506;2022-07-06T00:25:31;16.70;99.90
22319;DHT22;11327;52.334;9.506;2022-07-06T00:28:52;16.70;99.90
22319;DHT22;11327;52.334;9.506;2022-07-06T00:32:13;16.70;99.90
22319;DHT22;11327;52.334;9.506;2022-07-06T00:35:34;16.70;99.90
22319;DHT22;11327;52.334;9.506;2022-07-06T00:38:55;16.60;99.90
22319;DHT22;11327;52.334;9.506;2022-07-06T00:42:16;16.60;99.90
22319;DHT22;11327;52.334;9.506;2022-07-06T00:45:37;16.60;99.90
22319;DHT22;11327;52.334;9.506;2022-07-06T00:48:58;16.60;99.90
22319;DHT22;11327;52.334;9.506;2022-07-06T00:52:19;16.60;99.90
22319;DHT22;11327;52.334;9.506;2022-07-06T00:55:40;16.60;99.90
22319;DHT22;11327;52.334;9.506;2022-07-06T00:59:01;16.60;99.90
22319;DHT22;11327;52.334;9.506;2022-07-06T01:02:23;16.60;99.90
22319;DHT22;11327;52.334;9.506;2022-07-06T01:05:44;16.60;99.90
22319;DHT22;11327;52.334;9.506;2022-07-06T01:09:05;16.50;99.90
22319;DHT22;11327;52.334;9.506;2022-07-06T01:12:26;16.50;99.90
22319;DHT22;11327;52.334;9.506;2022-07-06T01:15:47;16.40;99.90
22319;DHT22;11327;52.334;9.506;2022-07-06T01:19:08;16.50;99.90
22319;DHT22;11327;52.334;9.506;2022-07-06T01:22:29;16.50;99.90
22319;DHT22;11327;52.334;9.506;2022-07-06T01:25:50;16.40;99.90
22319;DHT22;11327;52.334;9.506;2022-07-06T01:29:11;16.50;99.90
22319;DHT22;11327;52.334;9.506;2022-07-06T01:32:32;16.50;99.90
22319;DHT22;11327;52.334;9.506;2022-07-06T01:35:53;16.50;99.90
22319;DHT22;11327;52.334;9.506;2022-07-06T01:39:14;16.40;99.90
22319;DHT22;11327;52.334;9.506;2022-07-06T01:42:36;16.40;99.90
22319;DHT22;11327;52.334;9.506;2022-07-06T01:45:57;16.40;99.90
22319;DHT22;11327;52.334;9.506;2022-07-06T01:49:18;16.40;99.90
22319;DHT22;11327;52.334;9.506;2022-07-06T01:52:39;16.40;99.90
22319;DHT22;11327;52.334;9.506;2022-07-06T01:56:00;16.40;99.90
22319;DHT22;11327;52.334;9.506;2022-07-06T01:59:21;16.30;99.90
22319;DHT22;11327;52.334;9.506;2022-07-06T02:02:42;16.30;99.90
22319;DHT22;11327;52.334;9.506;2022-07-06T02:06:04;16.30;99.90
22319;DHT22;11327;52.334;9.506;2022-07-06T02:09:26;16.20;99.90
22319;DHT22;11327;52.334;9.506;2022-07-06T02:12:47;16.10;99.90
22319;DHT22;11327;52.334;9.506;2022-07-06T02:16:08;16.10;99.90
22319;DHT22;11327;52.334;9.506;2022-07-06T02:19:29;16.10;99.90
22319;DHT22;11327;52.334;9.506;2022-07-06T02:22:50;16.10;99.90
22319;DHT22;11327;52.334;9.506;2022-07-06T02:26:11;16.10;99.90
22319;DHT22;11327;52.334;9.506;2022-07-06T02:29:32;16.10;99.90
22319;DHT22;11327;52.334;9.506;2022-07-06T02:32:53;16.10;99.90
22319;DHT22;11327;52.334;9.506;2022-07-06T02:36:14;16.10;99.90
22319;DHT22;11327;52.334;9.506;2022-07-06T02:39:35;16.00;99.90
22319;DHT22;11327;52.334;9.506;2022-07-06T02:42:56;16.00;99.90
22319;DHT22;11327;52.334;9.506;2022-07-06T02:46:17;16.00;99.90
22319;DHT22;11327;52.334;9.506;2022-07-06T02:49:38;16.00;99.90
22319;DHT22;11327;52.334;9.506;2022-07-06T02:52:59;15.90;99.90
22319;DHT22;11327;52.334;9.506;2022-07-06T02:56:22;15.90;99.90
22319;DHT22;11327;52.334;9.506;2022-07-06T02:59:43;15.90;99.90
22319;DHT22;11327;52.334;9.506;2022-07-06T03:03:04;15.90;99.90
22319;DHT22;11327;52.334;9.506;2022-07-06T03:06:25;15.80;99.90
22319;DHT22;11327;52.334;9.506;2022-07-06T03:09:46;15.90;99.90
22319;DHT22;11327;52.334;9.506;2022-07-06T03:13:07;15.90;99.90
22319;DHT22;11327;52.334;9.506;2022-07-06T03:16:29;15.90;99.90
22319;DHT22;11327;52.334;9.506;2022-07-06T03:19:50;15.80;99.90
22319;DHT22;11327;52.334;9.506;2022-07-06T03:23:11;15.80;99.90
22319;DHT22;11327;52.334;9.506;2022-07-06T03:26:32;15.80;99.90
22319;DHT22;11327;52.334;9.506;2022-07-06T03:29:53;15.80;99.90
22319;DHT22;11327;52.334;9.506;2022-07-06T03:33:14;15.80;99.90
22319;DHT22;11327;52.334;9.506;2022-07-06T03:36:35;15.70;99.90
22319;DHT22;11327;52.334;9.506;2022-07-06T03:39:56;15.70;99.90
22319;DHT22;11327;52.334;9.506;2022-07-06T03:43:17;15.70;99.90
22319;DHT22;11327;52.334;9.506;2022-07-06T03:46:38;15.80;99.90
22319;DHT22;11327;52.334;9.506;2022-07-06T03:49:59;15.80;99.90
22319;DHT22;11327;52.334;9.506;2022-07-06T03:53:20;15.80;99.90
22319;DHT22;11327;52.334;9.506;2022-07-06T03:56:41;15.80;99.90
22319;DHT22;11327;52.334;9.506;2022-07-06T04:00:04;15.70;99.90
22319;DHT22;11327;52.334;9.506;2022-07-06T04:03:25;15.70;99.90
22319;DHT22;11327;52.334;9.506;2022-07-06T04:06:46;15.70;99.90
22319;DHT22;11327;52.334;9.506;2022-07-06T04:10:09;15.70;99.90
22319;DHT22;11327;52.334;9.506;2022-07-06T04:13:31;15.70;99.90
22319;DHT22;11327;52.334;9.506;2022-07-06T04:16:52;15.70;99.90
22319;DHT22;11327;52.334;9.506;2022-07-06T04:20:13;15.70;99.90
22319;DHT22;11327;52.334;9.506;2022-07-06T04:23:34;15.70;99.90
22319;DHT22;11327;52.334;9.506;2022-07-06T04:26:55;15.70;99.90
22319;DHT22;11327;52.334;9.506;2022-07-06T04:30:16;15.70;99.90
22319;DHT22;11327;52.334;9.506;2022-07-06T04:33:37;15.70;99.90
22319;DHT22;11327;52.334;9.506;2022-07-06T04:36:58;15.70;99.90
22319;DHT22;11327;52.334;9.506;2022-07-06T04:40:19;15.70;99.90
22319;DHT22;11327;52.334;9.506;2022-07-06T04:43:40;15.70;99.90
22319;DHT22;11327;52.334;9.506;2022-07-06T04:47:03;15.80;99.90
22319;DHT22;11327;52.334;9.506;2022-07-06T04:50:24;15.80;99.90
22319;DHT22;11327;52.334;9.506;2022-07-06T04:53:45;15.80;99.90
22319;DHT22;11327;52.334;9.506;2022-07-06T04:57:06;15.80;99.90
22319;DHT22;11327;52.334;9.506;2022-07-06T05:00:27;15.80;99.90
22319;DHT22;11327;52.334;9.506;2022-07-06T05:03:48;15.90;99.90
22319;DHT22;11327;52.334;9.506;2022-07-06T05:07:09;15.80;99.90
22319;DHT22;11327;52.334;9.506;2022-07-06T05:10:30;15.90;99.90
22319;DHT22;11327;52.334;9.506;2022-07-06T05:13:52;15.80;99.90
22319;DHT22;11327;52.334;9.506;2022-07-06T05:17:13;15.80;99.90
22319;DHT22;11327;52.334;9.506;2022-07-06T05:20:34;15.90;99.90
22319;DHT22;11327;52.334;9.506;2022-07-06T05:23:55;15.90;99.90
22319;DHT22;11327;52.334;9.506;2022-07-06T05:27:16;16.00;99.90
22319;DHT22;11327;52.334;9.506;2022-07-06T05:30:37;16.00;99.90
22319;DHT22;11327;52.334;9.506;2022-07-06T05:33:58;16.10;99.90
22319;DHT22;11327;52.334;9.506;2022-07-06T05:37:19;16.00;99.90
22319;DHT22;11327;52.334;9.506;2022-07-06T05:40:40;16.00;99.90
22319;DHT22;11327;52.334;9.506;2022-07-06T05:44:01;16.10;99.90
22319;DHT22;11327;52.334;9.506;2022-07-06T05:47:22;16.10;99.90
22319;DHT22;11327;52.334;9.506;2022-07-06T05:51:01;16.20;99.90
22319;DHT22;11327;52.334;9.506;2022-07-06T05:54:22;16.20;99.90
22319;DHT22;11327;52.334;9.506;2022-07-06T05:57:43;16.30;99.90
22319;DHT22;11327;52.334;9.506;2022-07-06T06:01:04;16.40;99.90
22319;DHT22;11327;52.334;9.506;2022-07-06T06:04:47;16.40;99.90
22319;DHT22;11327;52.334;9.506;2022-07-06T06:08:08;16.40;99.90
22319;DHT22;11327;52.334;9.506;2022-07-06T06:11:29;16.50;99.90
22319;DHT22;11327;52.334;9.506;2022-07-06T06:14:50;16.50;99.90
22319;DHT22;11327;52.334;9.506;2022-07-06T06:18:11;16.50;99.90
22319;DHT22;11327;52.334;9.506;2022-07-06T06:21:32;16.50;99.90
22319;DHT22;11327;52.334;9.506;2022-07-06T06:24:53;16.60;99.90
22319;DHT22;11327;52.334;9.506;2022-07-06T06:28:14;16.60;99.90
22319;DHT22;11327;52.334;9.506;2022-07-06T06:31:35;16.70;99.90
22319;DHT22;11327;52.334;9.506;2022-07-06T06:34:57;16.80;99.90
22319;DHT22;11327;52.334;9.506;2022-07-06T06:38:20;16.80;99.90
22319;DHT22;11327;52.334;9.506;2022-07-06T06:41:41;16.80;99.90
22319;DHT22;11327;52.334;9.506;2022-07-06T06:45:02;16.90;99.90
22319;DHT22;11327;52.334;9.506;2022-07-06T06:48:23;16.80;99.90
22319;DHT22;11327;52.334;9.506;2022-07-06T06:51:44;16.80;99.90
22319;DHT22;11327;52.334;9.506;2022-07-06T06:55:06;16.80;99.90
22319;DHT22;11327;52.334;9.506;2022-07-06T06:58:27;16.80;99.90
22319;DHT22;11327;52.334;9.506;2022-07-06T07:01:48;16.80;99.90
22319;DHT22;11327;52.334;9.506;2022-07-06T07:05:09;16.90;99.90
22319;DHT22;11327;52.334;9.506;2022-07-06T07:08:30;16.90;99.90
22319;DHT22;11327;52.334;9.506;2022-07-06T07:11:51;16.80;99.90
22319;DHT22;11327;52.334;9.506;2022-07-06T07:15:13;16.80;99.90
22319;DHT22;11327;52.334;9.506;2022-07-06T07:18:34;16.90;99.90
22319;DHT22;11327;52.334;9.506;2022-07-06T07:21:55;16.90;99.90
22319;DHT22;11327;52.334;9.506;2022-07-06T07:25:16;16.80;99.90
22319;DHT22;11327;52.334;9.506;2022-07-06T07:28:37;16.90;99.90
22319;DHT22;11327;52.334;9.506;2022-07-06T07:31:58;16.90;99.90
22319;DHT22;11327;52.334;9.506;2022-07-06T07:35:19;16.90;99.90
22319;DHT22;11327;52.334;9.506;2022-07-06T07:38:40;17.00;99.90
22319;DHT22;11327;52.334;9.506;2022-07-06T07:42:01;17.10;99.90
22319;DHT22;11327;52.334;9.506;2022-07-06T07:45:22;17.10;99.90
22319;DHT22;11327;52.334;9.506;2022-07-06T07:48:43;17.20;99.90
22319;DHT22;11327;52.334;9.506;2022-07-06T07:52:05;17.20;99.90
22319;DHT22;11327;52.334;9.506;2022-07-06T07:55:26;17.40;99.90
22319;DHT22;11327;52.334;9.506;2022-07-06T07:58:47;17.40;99.90
22319;DHT22;11327;52.334;9.506;2022-07-06T08:02:09;17.50;99.90
22319;DHT22;11327;52.334;9.506;2022-07-06T08:05:30;17.50;99.90
22319;DHT22;11327;52.334;9.506;2022-07-06T08:08:51;17.50;99.90
22319;DHT22;11327;52.334;9.506;2022-07-06T08:12:12;17.60;99.90
22319;DHT22;11327;52.334;9.506;2022-07-06T08:15:34;17.60;99.90
22319;DHT22;11327;52.334;9.506;2022-07-06T08:18:55;17.70;99.90
22319;DHT22;11327;52.334;9.506;2022-07-06T08:22:16;17.80;99.90
22319;DHT22;11327;52.334;9.506;2022-07-06T08:25:37;18.00;99.90
22319;DHT22;11327;52.334;9.506;2022-07-06T08:28:58;18.10;99.90
22319;DHT22;11327;52.334;9.506;2022-07-06T08:32:19;18.20;99.90
22319;DHT22;11327;52.334;9.506;2022-07-06T08:35:40;18.30;99.90
22319;DHT22;11327;52.334;9.506;2022-07-06T08:39:01;18.40;99.90
22319;DHT22;11327;52.334;9.506;2022-07-06T08:42:23;18.40;99.90
22319;DHT22;11327;52.334;9.506;2022-07-06T08:45:46;18.40;99.90
22319;DHT22;11327;52.334;9.506;2022-07-06T08:49:15;18.40;99.90
22319;DHT22;11327;52.334;9.506;2022-07-06T08:52:36;18.60;99.90
22319;DHT22;11327;52.334;9.506;2022-07-06T08:55:57;18.70;99.90
22319;DHT22;11327;52.334;9.506;2022-07-06T08:59:18;18.90;99.90
22319;DHT22;11327;52.334;9.506;2022-07-06T09:02:41;19.10;99.90
22319;DHT22;11327;52.334;9.506;2022-07-06T09:06:04;19.30;99.90
22319;DHT22;11327;52.334;9.506;2022-07-06T09:09:28;19.30;99.90
22319;DHT22;11327;52.334;9.506;2022-07-06T09:12:51;19.60;99.90
22319;DHT22;11327;52.334;9.506;2022-07-06T09:16:14;19.40;99.90
22319;DHT22;11327;52.334;9.506;2022-07-06T09:19:35;19.30;99.90
22319;DHT22;11327;52.334;9.506;2022-07-06T09:22:58;19.10;99.90
22319;DHT22;11327;52.334;9.506;2022-07-06T09:26:20;19.00;99.90
22319;DHT22;11327;52.334;9.506;2022-07-06T09:29:41;18.80;99.90
22319;DHT22;11327;52.334;9.506;2022-07-06T09:33:02;18.70;99.90
22319;DHT22;11327;52.334;9.506;2022-07-06T09:36:42;18.70;99.90
22319;DHT22;11327;52.334;9.506;2022-07-06T09:40:15;18.80;99.90
22319;DHT22;11327;52.334;9.506;2022-07-06T09:43:29;18.80;99.90
22319;DHT22;11327;52.334;9.506;2022-07-06T09:46:53;18.90;99.90
22319;DHT22;11327;52.334;9.506;2022-07-06T09:50:15;19.00;99.90
22319;DHT22;11327;52.334;9.506;2022-07-06T09:53:37;19.20;99.90
22319;DHT22;11327;52.334;9.506;2022-07-06T09:56:58;19.60;99.90
22319;DHT22;11327;52.334;9.506;2022-07-06T10:00:19;20.20;99.90
22319;DHT22;11327;52.334;9.506;2022-07-06T10:03:41;20.40;99.90
22319;DHT22;11327;52.334;9.506;2022-07-06T10:07:04;20.30;99.90
22319;DHT22;11327;52.334;9.506;2022-07-06T10:10:29;20.30;99.90
22319;DHT22;11327;52.334;9.506;2022-07-06T10:13:54;20.10;99.90
22319;DHT22;11327;52.334;9.506;2022-07-06T10:17:15;20.00;99.90
22319;DHT22;11327;52.334;9.506;2022-07-06T10:20:38;19.70;99.90
22319;DHT22;11327;52.334;9.506;2022-07-06T10:24:00;19.60;99.90
22319;DHT22;11327;52.334;9.506;2022-07-06T10:27:22;19.60;99.90
22319;DHT22;11327;52.334;9.506;2022-07-06T10:30:45;19.60;99.90
22319;DHT22;11327;52.334;9.506;2022-07-06T10:34:10;19.60;99.90
22319;DHT22;11327;52.334;9.506;2022-07-06T10:37:32;19.50;99.90
22319;DHT22;11327;52.334;9.506;2022-07-06T10:41:01;19.50;99.90
22319;DHT22;11327;52.334;9.506;2022-07-06T10:44:26;19.30;99.90
22319;DHT22;11327;52.334;9.506;2022-07-06T10:47:47;19.40;99.90
22319;DHT22;11327;52.334;9.506;2022-07-06T10:51:10;19.50;99.90
22319;DHT22;11327;52.334;9.506;2022-07-06T10:54:39;19.40;99.90
22319;DHT22;11327;52.334;9.506;2022-07-06T10:57:57;19.40;99.90
22319;DHT22;11327;52.334;9.506;2022-07-06T11:01:19;19.40;99.90
22319;DHT22;11327;52.334;9.506;2022-07-06T11:04:46;19.50;99.90
22319;DHT22;11327;52.334;9.506;2022-07-06T11:08:11;19.40;99.90
22319;DHT22;11327;52.334;9.506;2022-07-06T11:14:56;19.60;99.90
22319;DHT22;11327;52.334;9.506;2022-07-06T11:18:19;19.50;99.90
22319;DHT22;11327;52.334;9.506;2022-07-06T11:25:12;19.60;99.90
22319;DHT22;11327;52.334;9.506;2022-07-06T11:28:33;20.00;99.90
22319;DHT22;11327;52.334;9.506;2022-07-06T11:32:00;20.20;99.90
22319;DHT22;11327;52.334;9.506;2022-07-06T11:35:23;20.20;99.90
22319;DHT22;11327;52.334;9.506;2022-07-06T11:38:45;20.10;99.90
22319;DHT22;11327;52.334;9.506;2022-07-06T11:42:11;20.00;99.90
22319;DHT22;11327;52.334;9.506;2022-07-06T11:45:32;20.00;99.90
22319;DHT22;11327;52.334;9.506;2022-07-06T11:48:59;19.90;99.90
22319;DHT22;11327;52.334;9.506;2022-07-06T11:52:20;19.90;99.90
22319;DHT22;11327;52.334;9.506;2022-07-06T11:55:41;19.90;99.90
22319;DHT22;11327;52.334;9.506;2022-07-06T11:59:02;19.90;99.90
22319;DHT22;11327;52.334;9.506;2022-07-06T12:02:23;20.00;99.90
22319;DHT22;11327;52.334;9.506;2022-07-06T12:05:44;20.00;99.90
22319;DHT22;11327;52.334;9.506;2022-07-06T12:09:06;20.10;99.90
22319;DHT22;11327;52.334;9.506;2022-07-06T12:12:27;19.90;99.90
22319;DHT22;11327;52.334;9.506;2022-07-06T12:15:48;20.00;99.90
22319;DHT22;11327;52.334;9.506;2022-07-06T12:19:09;20.10;99.90
22319;DHT22;11327;52.334;9.506;2022-07-06T12:22:32;20.20;99.90
22319;DHT22;11327;52.334;9.506;2022-07-06T12:25:53;20.30;99.90
22319;DHT22;11327;52.334;9.506;2022-07-06T12:29:16;20.50;99.90
22319;DHT22;11327;52.334;9.506;2022-07-06T12:32:37;20.50;99.90
22319;DHT22;11327;52.334;9.506;2022-07-06T12:36:13;20.80;99.90
22319;DHT22;11327;52.334;9.506;2022-07-06T12:39:47;20.90;99.90
22319;DHT22;11327;52.334;9.506;2022-07-06T12:43:10;20.90;99.90
22319;DHT22;11327;52.334;9.506;2022-07-06T12:46:39;20.90;99.90
22319;DHT22;11327;52.334;9.506;2022-07-06T12:50:06;20.70;99.90
22319;DHT22;11327;52.334;9.506;2022-07-06T12:53:27;20.60;99.90
22319;DHT22;11327;52.334;9.506;2022-07-06T12:57:03;20.60;99.90
22319;DHT22;11327;52.334;9.506;2022-07-06T13:00:24;20.60;99.90
22319;DHT22;11327;52.334;9.506;2022-07-06T13:03:45;20.80;99.90
22319;DHT22;11327;52.334;9.506;2022-07-06T13:07:06;20.90;99.90
22319;DHT22;11327;52.334;9.506;2022-07-06T13:10:29;20.90;99.90
22319;DHT22;11327;52.334;9.506;2022-07-06T13:13:51;21.10;99.90
22319;DHT22;11327;52.334;9.506;2022-07-06T13:17:12;21.30;99.90
22319;DHT22;11327;52.334;9.506;2022-07-06T13:20:33;21.30;99.90
22319;DHT22;11327;52.334;9.506;2022-07-06T13:23:54;21.40;99.90
22319;DHT22;11327;52.334;9.506;2022-07-06T13:27:15;21.50;99.90
22319;DHT22;11327;52.334;9.506;2022-07-06T13:30:36;21.50;99.90
22319;DHT22;11327;52.334;9.506;2022-07-06T13:33:58;21.50;99.90
22319;DHT22;11327;52.334;9.506;2022-07-06T13:37:20;21.50;99.90
22319;DHT22;11327;52.334;9.506;2022-07-06T13:40:41;21.50;99.90
22319;DHT22;11327;52.334;9.506;2022-07-06T13:44:03;21.60;99.90
22319;DHT22;11327;52.334;9.506;2022-07-06T13:47:24;21.70;99.90
22319;DHT22;11327;52.334;9.506;2022-07-06T13:50:45;22.10;99.90
22319;DHT22;11327;52.334;9.506;2022-07-06T13:54:06;22.30;99.90
22319;DHT22;11327;52.334;9.506;2022-07-06T13:57:27;22.20;99.90
22319;DHT22;11327;52.334;9.506;2022-07-06T14:00:48;22.10;99.90
22319;DHT22;11327;52.334;9.506;2022-07-06T14:04:09;21.90;99.90
22319;DHT22;11327;52.334;9.506;2022-07-06T14:07:29;21.90;99.90
22319;DHT22;11327;52.334;9.506;2022-07-06T14:10:50;22.00;99.90
22319;DHT22;11327;52.334;9.506;2022-07-06T14:14:11;22.20;99.90
22319;DHT22;11327;52.334;9.506;2022-07-06T14:17:32;22.40;99.90
22319;DHT22;11327;52.334;9.506;2022-07-06T14:20:54;22.40;99.90
22319;DHT22;11327;52.334;9.506;2022-07-06T14:24:15;22.50;99.90
22319;DHT22;11327;52.334;9.506;2022-07-06T14:27:36;22.40;99.90
22319;DHT22;11327;52.334;9.506;2022-07-06T14:30:57;22.20;99.90
22319;DHT22;11327;52.334;9.506;2022-07-06T14:34:20;22.20;99.90
22319;DHT22;11327;52.334;9.506;2022-07-06T14:37:41;22.20;99.90
22319;DHT22;11327;52.334;9.506;2022-07-06T14:41:02;22.10;99.90
22319;DHT22;11327;52.334;9.506;2022-07-06T14:44:23;22.00;99.90
22319;DHT22;11327;52.334;9.506;2022-07-06T14:47:44;21.80;99.90
22319;DHT22;11327;52.334;9.506;2022-07-06T14:51:05;21.90;99.90
22319;DHT22;11327;52.334;9.506;2022-07-06T14:54:26;22.20;99.90
22319;DHT22;11327;52.334;9.506;2022-07-06T14:57:48;22.50;99.90
22319;DHT22;11327;52.334;9.506;2022-07-06T15:01:09;22.50;99.90
22319;DHT22;11327;52.334;9.506;2022-07-06T15:04:30;22.50;99.90
22319;DHT22;11327;52.334;9.506;2022-07-06T15:07:53;22.60;99.90
22319;DHT22;11327;52.334;9.506;2022-07-06T15:11:14;22.80;99.90
22319;DHT22;11327;52.334;9.506;2022-07-06T15:14:35;22.70;99.90
22319;DHT22;11327;52.334;9.506;2022-07-06T15:17:56;22.40;99.90
22319;DHT22;11327;52.334;9.506;2022-07-06T15:21:17;22.20;99.90
22319;DHT22;11327;52.334;9.506;2022-07-06T15:24:38;22.30;99.90
22319;DHT22;11327;52.334;9.506;2022-07-06T15:27:59;22.40;99.90
22319;DHT22;11327;52.334;9.506;2022-07-06T15:31:20;22.30;99.90
22319;DHT22;11327;52.334;9.506;2022-07-06T15:34:41;22.00;99.90
22319;DHT22;11327;52.334;9.506;2022-07-06T15:38:02;22.00;99.90
22319;DHT22;11327;52.334;9.506;2022-07-06T15:41:23;21.90;99.90
22319;DHT22;11327;52.334;9.506;2022-07-06T15:44:44;21.80;99.90
22319;DHT22;11327;52.334;9.506;2022-07-06T15:48:06;22.00;99.90
22319;DHT22;11327;52.334;9.506;2022-07-06T15:51:27;22.20;99.90
22319;DHT22;11327;52.334;9.506;2022-07-06T15:54:48;22.40;99.90
22319;DHT22;11327;52.334;9.506;2022-07-06T15:58:09;22.50;99.90
22319;DHT22;11327;52.334;9.506;2022-07-06T16:01:30;22.30;99.90
22319;DHT22;11327;52.334;9.506;2022-07-06T16:04:51;22.20;99.90
22319;DHT22;11327;52.334;9.506;2022-07-06T16:08:12;22.20;99.90
22319;DHT22;11327;52.334;9.506;2022-07-06T16:11:33;22.10;99.90
22319;DHT22;11327;52.334;9.506;2022-07-06T16:14:55;22.00;99.90
22319;DHT22;11327;52.334;9.506;2022-07-06T16:18:15;21.80;99.90
22319;DHT22;11327;52.334;9.506;2022-07-06T16:21:36;21.80;99.90
22319;DHT22;11327;52.334;9.506;2022-07-06T16:24:57;21.80;99.90
22319;DHT22;11327;52.334;9.506;2022-07-06T16:28:18;21.90;99.90
22319;DHT22;11327;52.334;9.506;2022-07-06T16:31:39;21.80;99.90
22319;DHT22;11327;52.334;9.506;2022-07-06T16:35:01;21.60;99.90
22319;DHT22;11327;52.334;9.506;2022-07-06T16:38:22;21.50;99.90
22319;DHT22;11327;52.334;9.506;2022-07-06T16:41:43;21.50;99.90
22319;DHT22;11327;52.334;9.506;2022-07-06T16:45:05;21.40;99.90
22319;DHT22;11327;52.334;9.506;2022-07-06T16:48:26;21.40;99.90
22319;DHT22;11327;52.334;9.506;2022-07-06T16:51:47;21.40;99.90
22319;DHT22;11327;52.334;9.506;2022-07-06T16:55:08;21.30;99.90
22319;DHT22;11327;52.334;9.506;2022-07-06T16:58:31;21.30;99.90
22319;DHT22;11327;52.334;9.506;2022-07-06T17:01:53;21.40;99.90
22319;DHT22;11327;52.334;9.506;2022-07-06T17:05:14;21.30;99.90
22319;DHT22;11327;52.334;9.506;2022-07-06T17:08:35;21.20;99.90
22319;DHT22;11327;52.334;9.506;2022-07-06T17:11:56;21.10;99.90
22319;DHT22;11327;52.334;9.506;2022-07-06T17:15:17;21.00;99.90
22319;DHT22;11327;52.334;9.506;2022-07-06T17:18:38;20.90;99.90
22319;DHT22;11327;52.334;9.506;2022-07-06T17:21:59;20.90;99.90
22319;DHT22;11327;52.334;9.506;2022-07-06T17:25:20;20.90;99.90
22319;DHT22;11327;52.334;9.506;2022-07-06T17:28:41;20.90;99.90
22319;DHT22;11327;52.334;9.506;2022-07-06T17:32:02;20.90;99.90
22319;DHT22;11327;52.334;9.506;2022-07-06T17:35:23;20.90;99.90
22319;DHT22;11327;52.334;9.506;2022-07-06T17:38:44;20.70;99.90
22319;DHT22;11327;52.334;9.506;2022-07-06T17:42:06;20.70;99.90
22319;DHT22;11327;52.334;9.506;2022-07-06T17:45:27;20.60;99.90
22319;DHT22;11327;52.334;9.506;2022-07-06T17:48:49;20.60;99.90
22319;DHT22;11327;52.334;9.506;2022-07-06T17:52:10;20.50;99.90
22319;DHT22;11327;52.334;9.506;2022-07-06T17:55:32;20.50;99.90
22319;DHT22;11327;52.334;9.506;2022-07-06T17:58:54;20.40;99.90
22319;DHT22;11327;52.334;9.506;2022-07-06T18:02:15;20.30;99.90
22319;DHT22;11327;52.334;9.506;2022-07-06T18:05:37;20.20;99.90
22319;DHT22;11327;52.334;9.506;2022-07-06T18:08:58;20.20;99.90
22319;DHT22;11327;52.334;9.506;2022-07-06T18:12:20;20.20;99.90
22319;DHT22;11327;52.334;9.506;2022-07-06T18:15:41;20.20;99.90
22319;DHT22;11327;52.334;9.506;2022-07-06T18:19:02;20.20;99.90
22319;DHT22;11327;52.334;9.506;2022-07-06T18:22:23;20.20;99.90
22319;DHT22;11327;52.334;9.506;2022-07-06T18:25:45;20.10;99.90
22319;DHT22;11327;52.334;9.506;2022-07-06T18:29:06;20.10;99.90
22319;DHT22;11327;52.334;9.506;2022-07-06T18:32:27;20.00;99.90
22319;DHT22;11327;52.334;9.506;2022-07-06T18:35:48;19.90;99.90
22319;DHT22;11327;52.334;9.506;2022-07-06T18:39:09;19.90;99.90
22319;DHT22;11327;52.334;9.506;2022-07-06T18:42:30;19.90;99.90
22319;DHT22;11327;52.334;9.506;2022-07-06T18:45:51;19.80;99.90
22319;DHT22;11327;52.334;9.506;2022-07-06T18:49:12;19.80;99.90
22319;DHT22;11327;52.334;9.506;2022-07-06T18:52:33;19.70;99.90
22319;DHT22;11327;52.334;9.506;2022-07-06T18:55:55;19.70;99.90
22319;DHT22;11327;52.334;9.506;2022-07-06T18:59:16;19.70;99.90
22319;DHT22;11327;52.334;9.506;2022-07-06T19:02:37;19.70;99.90
22319;DHT22;11327;52.334;9.506;2022-07-06T19:05:58;19.70;99.90
22319;DHT22;11327;52.334;9.506;2022-07-06T19:09:19;19.60;99.90
22319;DHT22;11327;52.334;9.506;2022-07-06T19:12:41;19.60;99.90
22319;DHT22;11327;52.334;9.506;2022-07-06T19:16:02;19.60;99.90
22319;DHT22;11327;52.334;9.506;2022-07-06T19:19:24;19.50;99.90
22319;DHT22;11327;52.334;9.506;2022-07-06T19:22:45;19.40;99.90
22319;DHT22;11327;52.334;9.506;2022-07-06T19:26:06;19.40;99.90
22319;DHT22;11327;52.334;9.506;2022-07-06T19:29:27;19.40;99.90
22319;DHT22;11327;52.334;9.506;2022-07-06T19:32:48;19.30;99.90
22319;DHT22;11327;52.334;9.506;2022-07-06T19:36:09;19.30;99.90
22319;DHT22;11327;52.334;9.506;2022-07-06T19:39:30;19.30;99.90
22319;DHT22;11327;52.334;9.506;2022-07-06T19:42:51;19.20;99.90
22319;DHT22;11327;52.334;9.506;2022-07-06T19:46:12;19.10;99.90
22319;DHT22;11327;52.334;9.506;2022-07-06T19:49:33;19.20;99.90
22319;DHT22;11327;52.334;9.506;2022-07-06T19:52:54;19.10;99.90
22319;DHT22;11327;52.334;9.506;2022-07-06T19:56:15;19.10;99.90
22319;DHT22;11327;52.334;9.506;2022-07-06T19:59:36;19.10;99.90
22319;DHT22;11327;52.334;9.506;2022-07-06T20:02:57;19.00;99.90
22319;DHT22;11327;52.334;9.506;2022-07-06T20:06:18;19.00;99.90
22319;DHT22;11327;52.334;9.506;2022-07-06T20:09:39;18.90;99.90
22319;DHT22;11327;52.334;9.506;2022-07-06T20:13:00;18.90;99.90
22319;DHT22;11327;52.334;9.506;2022-07-06T20:16:21;18.90;99.90
22319;DHT22;11327;52.334;9.506;2022-07-06T20:19:42;18.80;99.90
22319;DHT22;11327;52.334;9.506;2022-07-06T20:23:03;18.80;99.90
22319;DHT22;11327;52.334;9.506;2022-07-06T20:26:24;18.80;99.90
22319;DHT22;11327;52.334;9.506;2022-07-06T20:29:45;18.70;99.90
22319;DHT22;11327;52.334;9.506;2022-07-06T20:33:06;18.70;99.90
22319;DHT22;11327;52.334;9.506;2022-07-06T20:36:27;18.60;99.90
22319;DHT22;11327;52.334;9.506;2022-07-06T20:39:48;18.50;99.90
22319;DHT22;11327;52.334;9.506;2022-07-06T20:43:09;18.50;99.90
22319;DHT22;11327;52.334;9.506;2022-07-06T20:46:30;18.40;99.90
22319;DHT22;11327;52.334;9.506;2022-07-06T20:49:51;18.40;99.90
22319;DHT22;11327;52.334;9.506;2022-07-06T20:53:12;18.30;99.90
22319;DHT22;11327;52.334;9.506;2022-07-06T20:56:33;18.20;99.90
22319;DHT22;11327;52.334;9.506;2022-07-06T20:59:54;18.30;99.90
22319;DHT22;11327;52.334;9.506;2022-07-06T21:03:15;18.20;99.90
22319;DHT22;11327;52.334;9.506;2022-07-06T21:06:38;18.20;99.90
22319;DHT22;11327;52.334;9.506;2022-07-06T21:09:59;18.20;99.90
22319;DHT22;11327;52.334;9.506;2022-07-06T21:13:20;18.10;99.90
22319;DHT22;11327;52.334;9.506;2022-07-06T21:16:41;18.20;99.90
22319;DHT22;11327;52.334;9.506;2022-07-06T21:20:03;18.10;99.90